Green Rock, Illinois
Current Conditions -  °F | °C
As of 12:00 AM on Monday 24 Nov 2014 (Local Time) from KMLI Reporting Station
Overcast Overcast  
Wind Chill: 36°   Ceiling: 500
Heat Index: 45°   Visibility: 8mi
Dew Point: 44°   Wind: 23mph
Humidity: 97%   Direction: 300°WNW
Pressure: 29.15"   Gusts: 28mph
Location:  41.4426°N, 90.3628°W
Report Text: KMLI 240600Z AUTO 30020G24KT 8SM OVC005 07/07 A2915 RMK AO2 T00720067 $
Loading
Personal Weather Stations






























Interactive Weather Map New forecast layout! Learn more

10-Day Weather Forecast

Advertisements
Track Severe Weather on mobile